Time;durP1;ratioP1;P1;durP2;ratioP2;P2;SDS_P1;SDS_P2;PMS_P1;PMS_P2;Temp;Humidity;BMP_temperature;BMP_pressure;BME280_temperature;BME280_humidity;BME280_pressure;Samples;Min_cycle;Max_cycle;Signal;HPM_P1;HPM_P2
2022/12/18 00:01:40;;;;;;;38.60;19.80;;;;;;;-6.54;98.74;102185.59;5223336;28;20020;-71
2022/12/18 00:04:20;;;;;;;35.55;18.73;;;;;;;-6.57;99.14;102179.44;5214735;28;20037;-71
2022/12/18 00:06:51;;;;;;;37.83;19.80;;;;;;;-6.74;98.96;102186.06;5216744;28;20565;-71
2022/12/18 00:09:21;;;;;;;38.15;19.48;;;;;;;-6.92;100.00;102192.59;5221285;28;20112;-71
2022/12/18 00:11:51;;;;;;;41.50;19.75;;;;;;;-6.93;99.25;102200.16;5223748;28;20271;-71
2022/12/18 00:14:22;;;;;;;40.97;20.48;;;;;;;-6.97;100.00;102201.63;5231550;28;20024;-71
2022/12/18 00:16:52;;;;;;;35.90;19.02;;;;;;;-6.84;100.00;102201.56;5224819;28;20020;-71
2022/12/18 00:19:22;;;;;;;42.40;20.35;;;;;;;-6.92;100.00;102200.22;5223373;28;20021;-71
2022/12/18 00:21:53;;;;;;;35.80;18.85;;;;;;;-6.92;99.67;102200.22;5221906;28;20167;-71
2022/12/18 00:24:23;;;;;;;39.40;19.23;;;;;;;-6.99;100.00;102207.41;5219684;28;20028;-72
2022/12/18 00:26:54;;;;;;;38.65;19.23;;;;;;;-6.81;100.00;102208.47;5231803;28;20043;-72
2022/12/18 00:29:24;;;;;;;39.95;20.00;;;;;;;-6.81;100.00;102213.56;5225616;28;20068;-71
2022/12/18 00:31:54;;;;;;;40.88;19.90;;;;;;;-7.08;99.90;102215.34;5223995;28;20470;-72
2022/12/18 00:34:24;;;;;;;41.55;20.50;;;;;;;-7.00;100.00;102219.22;5223723;28;20021;-71
2022/12/18 00:36:55;;;;;;;40.72;20.88;;;;;;;-7.11;100.00;102207.53;5224721;28;20681;-71
2022/12/18 00:39:25;;;;;;;40.13;19.83;;;;;;;-6.91;100.00;102216.38;5225715;28;20035;-71
2022/12/18 00:44:44;;;;;;;37.47;19.40;;;;;;;-6.85;100.00;102215.06;5222877;28;20087;-71
2022/12/18 00:47:14;;;;;;;38.58;19.40;;;;;;;-6.77;99.17;102211.31;5214618;28;20025;-71
2022/12/18 00:49:45;;;;;;;40.22;19.55;;;;;;;-6.69;98.55;102210.09;5220326;28;20486;-71
2022/12/18 00:52:15;;;;;;;40.55;19.45;;;;;;;-6.72;99.03;102206.50;5224674;28;20437;-71
2022/12/18 00:54:45;;;;;;;38.00;19.15;;;;;;;-6.71;98.36;102226.94;5226394;28;20040;-71
2022/12/18 00:57:15;;;;;;;38.95;18.42;;;;;;;-6.77;97.30;102229.09;5251054;22;20436;-77
2022/12/18 00:59:46;;;;;;;42.22;19.20;;;;;;;-6.87;97.32;102234.44;5225227;28;20115;-76
2022/12/18 01:02:16;;;;;;;40.55;19.40;;;;;;;-7.01;97.27;102231.81;5225709;28;20497;-76
2022/12/18 01:04:46;;;;;;;37.03;18.33;;;;;;;-7.06;98.85;102234.13;5218263;28;20053;-76
2022/12/18 01:07:17;;;;;;;40.88;19.17;;;;;;;-7.11;99.88;102232.94;5220723;28;20503;-77
2022/12/18 01:09:47;;;;;;;39.92;19.67;;;;;;;-7.13;100.00;102231.97;5215954;28;20040;-76
2022/12/18 01:12:17;;;;;;;40.70;19.70;;;;;;;-7.18;100.00;102238.44;5203969;28;20122;-77
2022/12/18 01:14:47;;;;;;;38.30;19.25;;;;;;;-7.23;100.00;102243.13;5211175;28;20405;-76
2022/12/18 01:17:18;;;;;;;40.20;19.52;;;;;;;-7.30;100.00;102238.47;5204703;28;20021;-77
2022/12/18 01:19:48;;;;;;;39.20;19.30;;;;;;;-7.21;100.00;102239.03;5206047;28;20386;-77
2022/12/18 01:22:18;;;;;;;36.58;18.45;;;;;;;-7.26;99.46;102241.28;5201017;28;20033;-77
2022/12/18 01:24:49;;;;;;;36.80;18.23;;;;;;;-7.21;100.00;102249.19;5202979;28;20025;-75
2022/12/18 01:27:19;;;;;;;39.70;18.75;;;;;;;-7.25;98.74;102252.31;5210816;28;20479;-77
2022/12/18 01:29:49;;;;;;;38.75;19.38;;;;;;;-7.46;98.72;102250.97;5213882;28;20029;-77
2022/12/18 01:32:20;;;;;;;38.90;19.13;;;;;;;-7.42;100.00;102258.00;5196019;28;20041;-76
2022/12/18 01:34:50;;;;;;;41.30;19.05;;;;;;;-7.37;99.34;102256.66;5206263;28;20490;-76
2022/12/18 01:37:20;;;;;;;36.55;18.75;;;;;;;-7.43;99.63;102261.31;5214356;28;20372;-77
2022/12/18 01:39:54;;;;;;;38.50;19.52;;;;;;;-7.41;98.94;102264.81;5210201;28;20501;-77
2022/12/18 01:42:25;;;;;;;39.67;19.05;;;;;;;-7.41;98.86;102254.69;5207208;28;20430;-76
2022/12/18 01:45:13;;;;;;;35.80;18.30;;;;;;;-7.32;98.83;102253.59;5214737;28;20489;-77
2022/12/18 01:47:50;;;;;;;38.55;18.73;;;;;;;-7.31;98.44;102262.09;5208362;28;20483;-77
2022/12/18 01:50:27;;;;;;;35.95;18.38;;;;;;;-7.33;97.91;102261.13;5208932;28;20612;-77
2022/12/18 01:53:20;;;;;;;37.53;17.73;;;;;;;-7.30;97.38;102248.63;5206425;28;20091;-76
2022/12/18 01:55:57;;;;;;;36.50;17.38;;;;;;;-7.41;97.50;102247.97;5208581;28;20032;-77
2022/12/18 01:58:31;;;;;;;37.50;18.38;;;;;;;-7.48;97.77;102255.09;5212690;28;20025;-77
2022/12/18 02:01:02;;;;;;;38.55;18.38;;;;;;;-7.60;97.19;102264.47;5205993;28;20055;-76
2022/12/18 02:03:33;;;;;;;40.60;19.15;;;;;;;-7.57;98.63;102268.06;5209712;28;20025;-76
2022/12/18 02:06:03;;;;;;;37.75;17.65;;;;;;;-7.61;97.48;102265.25;5211842;28;20266;-77
2022/12/18 02:08:45;;;;;;;35.55;18.00;;;;;;;-7.65;98.76;102263.31;5206212;28;20029;-76
2022/12/18 02:11:24;;;;;;;39.60;17.90;;;;;;;-7.71;99.10;102255.31;5214012;28;20701;-76
2022/12/18 02:14:12;;;;;;;35.92;17.92;;;;;;;-7.72;99.03;102256.94;5210758;28;20021;-74
2022/12/18 02:16:54;;;;;;;38.92;18.08;;;;;;;-7.61;98.47;102250.03;5212261;28;20027;-77
2022/12/18 02:19:37;;;;;;;35.97;18.05;;;;;;;-7.60;98.38;102241.63;5203872;28;20021;-77
2022/12/18 02:22:26;;;;;;;38.22;17.98;;;;;;;-7.67;97.44;102253.03;5207584;28;20101;-76
2022/12/18 02:25:24;;;;;;;35.97;17.42;;;;;;;-7.74;97.20;102262.72;5205778;28;20082;-76
2022/12/18 02:27:59;;;;;;;38.20;18.00;;;;;;;-7.68;97.85;102263.13;5208442;28;20021;-77
2022/12/18 02:30:33;;;;;;;43.53;18.48;;;;;;;-7.66;98.31;102266.63;5218922;28;20169;-76
2022/12/18 02:33:06;;;;;;;36.47;17.00;;;;;;;-7.67;98.67;102269.94;5211711;28;20040;-76
2022/12/18 02:35:40;;;;;;;36.63;18.77;;;;;;;-7.64;98.77;102259.97;5208214;28;20402;-76
2022/12/18 02:38:12;;;;;;;43.60;19.05;;;;;;;-7.66;99.50;102256.47;5203106;28;20398;-77
2022/12/18 02:40:43;;;;;;;42.30;19.42;;;;;;;-7.71;99.88;102261.25;5208391;28;20126;-76
2022/12/18 02:43:15;;;;;;;42.28;18.23;;;;;;;-7.73;99.76;102259.41;5204610;28;20025;-77
2022/12/18 02:45:49;;;;;;;41.30;19.33;;;;;;;-7.64;99.53;102263.41;5209611;28;20143;-77
2022/12/18 02:48:25;;;;;;;37.33;18.25;;;;;;;-7.59;98.86;102253.53;5204498;28;20479;-76
2022/12/18 02:51:07;;;;;;;41.33;18.42;;;;;;;-7.56;98.56;102257.16;5205073;28;20179;-76
2022/12/18 02:53:44;;;;;;;39.22;17.80;;;;;;;-7.66;98.25;102259.00;5211271;28;20398;-76
2022/12/18 02:56:34;;;;;;;36.05;17.55;;;;;;;-7.77;97.62;102263.41;5209113;28;20025;-77
2022/12/18 02:59:07;;;;;;;38.72;18.20;;;;;;;-7.88;97.71;102264.38;5206923;28;20144;-77
2022/12/18 03:01:59;;;;;;;41.05;17.83;;;;;;;-7.83;97.94;102267.22;5206312;28;20120;-76
2022/12/18 03:04:39;;;;;;;35.72;18.23;;;;;;;-7.78;97.62;102259.13;5204390;28;20029;-76
2022/12/18 03:07:16;;;;;;;36.72;17.08;;;;;;;-7.75;97.04;102260.94;5203714;28;20036;-74
2022/12/18 03:09:50;;;;;;;38.05;17.27;;;;;;;-7.72;96.82;102267.09;5207301;28;20075;-77
2022/12/18 03:12:53;;;;;;;36.35;17.67;;;;;;;-7.73;96.76;102262.81;5206585;28;20029;-76
2022/12/18 03:15:31;;;;;;;33.50;16.10;;;;;;;-7.77;97.60;102253.25;5194996;28;20099;-76
2022/12/18 03:18:11;;;;;;;37.03;17.30;;;;;;;-7.75;97.77;102256.78;5206500;28;20013;-76
2022/12/18 03:20:44;;;;;;;41.83;18.23;;;;;;;-7.86;99.08;102261.94;5208853;28;20020;-77
2022/12/18 03:23:20;;;;;;;35.40;17.10;;;;;;;-7.85;98.70;102263.69;5200099;28;20029;-77
2022/12/18 03:25:55;;;;;;;41.47;18.17;;;;;;;-7.74;98.67;102260.19;5208085;28;20399;-76
2022/12/18 03:28:30;;;;;;;37.33;17.92;;;;;;;-7.70;98.11;102264.69;5207744;28;20032;-77
2022/12/18 03:31:02;;;;;;;;;;;;;;;-7.70;97.88;102267.22;5217487;28;20038;-76
2022/12/18 03:33:41;;;;;;;35.30;16.42;;;;;;;-7.79;96.57;102261.53;5206837;28;20014;-76
2022/12/18 03:36:11;;;;;;;38.65;16.98;;;;;;;-7.77;97.42;102254.91;5205384;28;20036;-76
2022/12/18 03:38:42;;;;;;;37.17;17.70;;;;;;;-7.75;97.47;102255.88;5205470;28;20025;-77
2022/12/18 03:41:41;;;;;;;35.28;17.00;;;;;;;-7.88;97.52;102243.22;5209031;28;20041;-77
2022/12/18 03:44:15;;;;;;;35.85;17.52;;;;;;;-7.95;98.08;102246.13;5211399;28;20028;-77
2022/12/18 03:46:46;;;;;;;;;;;;;;;-7.77;98.36;102252.38;5207121;28;20490;-77
2022/12/18 03:49:36;;;;;;;39.17;17.85;;;;;;;-7.73;98.41;102242.53;5202561;28;19917;-76
2022/12/18 03:52:35;;;;;;;37.92;17.27;;;;;;;-7.73;97.86;102246.72;5204759;28;20049;-77
2022/12/18 03:55:07;;;;;;;37.47;16.27;;;;;;;-7.79;97.91;102246.31;5206074;28;20544;-77
2022/12/18 03:57:39;;;;;;;38.47;17.52;;;;;;;-7.71;97.55;102257.84;5202002;28;20095;-77
2022/12/18 04:00:13;;;;;;;36.22;16.98;;;;;;;-7.63;97.53;102251.59;5207884;28;20028;-76
2022/12/18 04:02:49;;;;;;;42.88;17.88;;;;;;;-7.69;96.75;102256.28;5207166;28;20025;-77
2022/12/18 04:05:21;;;;;;;35.17;16.15;;;;;;;-7.68;96.68;102250.44;5209890;28;20441;-76
2022/12/18 04:07:53;;;;;;;35.33;17.25;;;;;;;-7.79;97.28;102251.41;5202306;28;20410;-77
2022/12/18 04:10:24;;;;;;;37.85;17.52;;;;;;;-7.85;97.23;102243.41;5210260;28;20025;-76
2022/12/18 04:12:57;;;;;;;37.35;17.73;;;;;;;-7.86;98.12;102245.06;5209921;28;20102;-77
2022/12/18 04:15:28;;;;;;;38.35;17.58;;;;;;;-7.84;97.82;102238.41;5210793;28;20321;-76
2022/12/18 04:17:58;;;;;;;34.28;16.80;;;;;;;-7.82;97.27;102236.00;5203573;28;20027;-77
2022/12/18 04:20:28;;;;;;;33.42;16.20;;;;;;;-7.77;97.24;102229.53;5204300;28;20021;-76
2022/12/18 04:22:58;;;;;;;36.00;16.77;;;;;;;-7.75;97.29;102231.41;5202403;28;20040;-77
2022/12/18 04:25:29;;;;;;;39.85;17.65;;;;;;;-7.70;97.19;102234.22;5209120;28;20540;-76
2022/12/18 04:27:59;;;;;;;37.72;17.15;;;;;;;-7.68;96.29;102242.81;5209916;28;20112;-76
2022/12/18 04:30:29;;;;;;;42.17;18.80;;;;;;;-7.81;96.62;102240.28;5217529;28;20368;-76
2022/12/18 04:33:00;;;;;;;40.58;18.75;;;;;;;-7.84;97.17;102247.69;5210176;28;20037;-76
2022/12/18 04:35:30;;;;;;;40.47;18.65;;;;;;;-7.80;97.20;102262.31;5206840;28;20044;-76
2022/12/18 04:38:00;;;;;;;37.15;17.25;;;;;;;-7.87;97.59;102261.03;5200913;28;20084;-76
2022/12/18 04:40:31;;;;;;;41.22;17.63;;;;;;;-7.75;97.23;102258.41;5205971;28;20025;-76
2022/12/18 04:43:01;;;;;;;35.45;17.35;;;;;;;-7.80;97.21;102262.31;5209987;28;20254;-76
2022/12/18 04:45:31;;;;;;;40.10;17.58;;;;;;;-7.83;96.95;102257.06;5209745;28;20045;-77
2022/12/18 04:48:02;;;;;;;37.00;17.75;;;;;;;-7.94;97.03;102263.97;5204594;28;20079;-76
2022/12/18 04:50:33;;;;;;;41.08;17.73;;;;;;;-7.95;96.56;102261.34;5207578;28;20061;-76
2022/12/18 04:53:03;;;;;;;39.80;18.23;;;;;;;-7.99;96.95;102254.31;5202150;28;20061;-76
2022/12/18 04:55:33;;;;;;;41.50;18.38;;;;;;;-7.91;97.17;102260.78;5205410;28;20191;-76
2022/12/18 04:58:04;;;;;;;40.75;17.67;;;;;;;-7.93;96.81;102255.59;5207524;28;20025;-76
2022/12/18 05:00:34;;;;;;;45.03;19.17;;;;;;;-7.95;96.84;102258.81;5211495;28;20120;-76
2022/12/18 05:03:04;;;;;;;39.00;17.65;;;;;;;-7.89;97.16;102254.16;5207524;28;20025;-76
2022/12/18 05:05:35;;;;;;;40.90;18.60;;;;;;;-7.88;97.04;102255.91;5205950;28;20118;-76
2022/12/18 05:08:05;;;;;;;45.70;18.83;;;;;;;-7.90;97.25;102248.19;5210809;28;20037;-76
2022/12/18 05:10:36;;;;;;;44.70;18.05;;;;;;;-7.91;97.79;102245.56;5213543;28;20034;-76
2022/12/18 05:13:06;;;;;;;41.88;17.98;;;;;;;-7.99;97.89;102234.03;5213310;28;20041;-76
2022/12/18 05:15:36;;;;;;;45.13;18.50;;;;;;;-7.98;98.50;102235.78;5214649;28;20048;-76
2022/12/18 05:18:07;;;;;;;42.20;18.55;;;;;;;-7.98;98.28;102230.72;5206551;28;20112;-76
2022/12/18 05:20:38;;;;;;;43.80;19.52;;;;;;;-8.19;98.58;102224.31;5211653;28;20025;-76
2022/12/18 05:23:08;;;;;;;39.85;17.88;;;;;;;-8.03;99.23;102234.63;5206667;28;20040;-76
2022/12/18 05:25:38;;;;;;;43.72;18.67;;;;;;;-8.12;98.53;102234.91;5211194;28;20075;-76
2022/12/18 05:28:09;;;;;;;43.50;18.95;;;;;;;-8.01;98.21;102230.53;5211728;28;20026;-75
2022/12/18 05:30:42;;;;;;;42.83;17.65;;;;;;;-7.93;97.90;102230.22;5221646;28;20507;-75
2022/12/18 05:33:12;;;;;;;42.80;19.00;;;;;;;-7.98;97.50;102241.75;5211340;28;20025;-75
2022/12/18 05:35:43;;;;;;;46.67;18.27;;;;;;;-7.94;97.54;102237.72;5209684;28;20032;-75
2022/12/18 05:38:13;;;;;;;43.33;18.17;;;;;;;-8.07;97.45;102236.06;5205884;28;20163;-75
2022/12/18 05:40:43;;;;;;;47.38;19.17;;;;;;;-8.07;97.60;102246.22;5213205;28;20474;-75
2022/12/18 05:43:14;;;;;;;46.72;18.90;;;;;;;-8.03;97.78;102239.69;5215467;28;20021;-75
2022/12/18 05:45:45;;;;;;;49.15;19.58;;;;;;;-8.00;98.24;102244.97;5211697;28;20469;-74
2022/12/18 05:48:16;;;;;;;41.13;18.13;;;;;;;-8.06;98.08;102236.97;5210853;28;20025;-74
2022/12/18 05:50:48;;;;;;;41.65;17.27;;;;;;;-7.97;99.23;102242.59;5217894;28;20514;-74
2022/12/18 05:53:20;;;;;;;50.92;17.92;;;;;;;-8.07;97.22;102251.28;5202016;28;20032;-74
2022/12/18 05:55:50;;;;;;;42.83;17.83;;;;;;;-7.99;98.35;102254.31;5207678;28;20087;-74
2022/12/18 05:58:22;;;;;;;45.40;17.55;;;;;;;-7.93;96.77;102254.69;5214243;28;20072;-74
2022/12/18 06:00:52;;;;;;;43.35;17.08;;;;;;;-8.01;95.74;102253.34;5211849;28;20053;-75
2022/12/18 06:03:22;;;;;;;43.22;17.17;;;;;;;-8.04;95.44;102258.22;5207557;28;20029;-75
2022/12/18 06:05:53;;;;;;;38.67;16.63;;;;;;;-7.88;95.84;102268.56;5204118;28;20301;-74
2022/12/18 06:08:23;;;;;;;41.47;16.58;;;;;;;-7.89;95.22;102279.50;5206118;28;20032;-75
2022/12/18 06:10:53;;;;;;;40.08;16.52;;;;;;;-7.81;95.10;102280.84;5212506;28;20071;-74
2022/12/18 06:13:24;;;;;;;39.85;16.05;;;;;;;-7.96;95.10;102279.88;5213533;28;20048;-74
2022/12/18 06:15:54;;;;;;;39.28;15.32;;;;;;;-7.97;94.79;102278.09;5211420;28;20068;-74
2022/12/18 06:18:24;;;;;;;38.00;16.13;;;;;;;-7.96;95.37;102285.84;5206510;28;20031;-74
2022/12/18 06:20:59;;;;;;;34.95;16.15;;;;;;;-8.07;95.12;102289.31;5208765;28;20040;-74
2022/12/18 06:23:29;;;;;;;;;;;;;;;-7.98;96.62;102300.06;5204345;28;20342;-74
2022/12/18 06:26:07;;;;;;;37.90;16.03;;;;;;;-7.74;96.64;102290.63;5210053;28;20317;-74
2022/12/18 06:28:37;;;;;;;38.80;16.00;;;;;;;-7.73;96.62;102297.47;5211108;28;20366;-74
2022/12/18 06:31:08;;;;;;;34.90;15.75;;;;;;;-7.71;96.96;102299.31;5221616;28;20139;-74
2022/12/18 06:33:39;;;;;;;39.17;15.57;;;;;;;-7.71;97.29;102306.06;5208440;28;20031;-73
2022/12/18 06:36:12;;;;;;;40.13;17.08;;;;;;;-7.72;97.54;102311.91;5206827;28;20040;-74
2022/12/18 06:38:43;;;;;;;39.15;15.85;;;;;;;-7.81;97.95;102309.66;5206198;28;20442;-74
2022/12/18 06:41:16;;;;;;;41.58;17.13;;;;;;;-7.88;97.61;102309.16;5209226;28;20028;-74
2022/12/18 06:43:47;;;;;;;42.97;16.83;;;;;;;-7.90;97.74;102313.25;5212090;28;20025;-74
2022/12/18 06:46:17;;;;;;;41.53;17.17;;;;;;;-7.93;97.24;102307.97;5217404;28;20029;-74
2022/12/18 06:48:49;;;;;;;43.70;18.70;;;;;;;-7.97;97.83;102301.84;5204736;28;20037;-75
2022/12/18 06:51:22;;;;;;;47.50;17.92;;;;;;;-8.09;97.78;102306.09;5208240;28;20026;-74
2022/12/18 06:53:52;;;;;;;46.63;18.17;;;;;;;-8.02;98.13;102304.84;5205970;28;20053;-74
2022/12/18 06:56:22;;;;;;;46.15;19.33;;;;;;;-8.07;98.20;102301.13;5208512;28;20048;-75
2022/12/18 06:58:52;;;;;;;45.33;18.80;;;;;;;-8.19;99.08;102308.81;5213463;28;20112;-74
2022/12/18 07:01:23;;;;;;;50.45;18.70;;;;;;;-8.25;99.07;102322.78;5219373;28;20098;-74
2022/12/18 07:03:55;;;;;;;48.38;18.30;;;;;;;-8.10;98.36;102326.25;5204824;28;20040;-74
2022/12/18 07:06:25;;;;;;;44.15;18.05;;;;;;;-8.08;97.23;102325.59;5206501;28;20035;-74
2022/12/18 07:08:56;;;;;;;45.25;18.45;;;;;;;-8.19;96.96;102321.50;5205959;28;20033;-78
2022/12/18 07:11:26;;;;;;;48.58;19.23;;;;;;;-8.08;97.56;102319.66;5212605;28;20550;-76
2022/12/18 07:13:59;;;;;;;48.10;17.83;;;;;;;-8.17;97.79;102317.41;5210689;28;20096;-75
2022/12/18 07:16:30;;;;;;;49.53;18.80;;;;;;;-8.15;97.78;102317.47;5209799;28;20406;-74
2022/12/18 07:19:00;;;;;;;47.78;18.85;;;;;;;-8.19;96.44;102313.03;5204106;28;20021;-74
2022/12/18 07:21:30;;;;;;;49.63;18.65;;;;;;;-8.19;96.56;102320.63;5209030;28;20061;-74
2022/12/18 07:24:00;;;;;;;48.05;18.70;;;;;;;-8.22;97.01;102320.44;5205445;28;20091;-74
2022/12/18 07:26:31;;;;;;;53.58;19.67;;;;;;;-8.22;97.65;102328.91;5211899;28;20194;-74
2022/12/18 07:29:01;;;;;;;51.67;19.45;;;;;;;-8.24;97.31;102329.59;5211175;28;20029;-74
2022/12/18 07:31:31;;;;;;;45.60;17.92;;;;;;;-8.19;97.75;102340.91;5221426;28;20044;-75
2022/12/18 07:34:02;;;;;;;48.95;18.98;;;;;;;-8.14;97.20;102344.59;5204103;28;20108;-74
2022/12/18 07:36:32;;;;;;;48.90;18.85;;;;;;;-8.04;96.81;102347.81;5207133;28;20032;-74
2022/12/18 07:39:02;;;;;;;48.85;18.92;;;;;;;-8.08;96.60;102355.16;5205976;28;20033;-75
2022/12/18 07:41:33;;;;;;;43.28;18.00;;;;;;;-8.06;96.81;102348.53;5212458;28;20037;-75
2022/12/18 07:44:03;;;;;;;48.92;17.98;;;;;;;-8.03;98.05;102353.78;5208900;28;20053;-74
2022/12/18 07:46:33;;;;;;;52.55;19.13;;;;;;;-7.79;97.69;102363.00;5185499;28;20307;-74
2022/12/18 07:49:04;;;;;;;46.33;17.38;;;;;;;-7.31;97.10;102358.56;5205096;28;20509;-75
2022/12/18 07:51:34;;;;;;;43.05;17.48;;;;;;;-7.11;96.19;102359.03;5181026;28;20083;-74
2022/12/18 07:54:05;;;;;;;43.47;17.27;;;;;;;-6.51;94.96;102361.16;5191408;28;20092;-75
2022/12/18 07:56:35;;;;;;;40.38;17.15;;;;;;;-5.98;91.71;102362.69;5208217;28;20120;-74
2022/12/18 07:59:05;;;;;;;40.53;16.27;;;;;;;-4.91;88.25;102364.56;5213506;28;20028;-75
2022/12/18 08:01:35;;;;;;;35.97;14.55;;;;;;;-4.36;83.83;102364.16;5210643;28;20534;-75
2022/12/18 08:04:06;;;;;;;35.65;14.52;;;;;;;-4.33;82.70;102375.41;5211491;28;20036;-77
2022/12/18 08:06:36;;;;;;;31.75;14.95;;;;;;;-3.90;81.19;102373.38;5207316;28;20036;-77
2022/12/18 08:09:08;;;;;;;35.50;15.38;;;;;;;-3.49;79.70;102369.53;5205766;28;20473;-76
2022/12/18 08:11:38;;;;;;;36.67;15.18;;;;;;;-3.35;78.71;102366.84;5209090;28;20547;-74
2022/12/18 08:14:09;;;;;;;32.80;14.95;;;;;;;-3.73;78.79;102359.78;5209913;28;20057;-74
2022/12/18 08:16:39;;;;;;;35.63;14.85;;;;;;;-4.09;78.14;102369.00;5209809;28;20028;-75
2022/12/18 08:19:10;;;;;;;33.65;14.40;;;;;;;-3.58;79.13;102358.84;5202471;28;20053;-74
2022/12/18 08:21:40;;;;;;;34.80;15.55;;;;;;;-3.45;78.47;102357.00;5211260;28;20037;-74
2022/12/18 08:24:10;;;;;;;33.33;14.55;;;;;;;-3.64;78.49;102342.38;5212149;28;20390;-74
2022/12/18 08:26:41;;;;;;;34.60;14.75;;;;;;;-3.73;79.27;102332.59;5210504;28;20563;-75
2022/12/18 08:29:11;;;;;;;34.38;15.15;;;;;;;-3.71;79.37;102332.66;5207253;28;20163;-74
2022/12/18 08:31:41;;;;;;;36.50;15.45;;;;;;;-4.07;79.88;102341.91;5209528;28;20024;-74
2022/12/18 08:34:12;;;;;;;33.80;14.55;;;;;;;-4.67;80.92;102333.63;5203262;28;20034;-77
2022/12/18 08:36:42;;;;;;;37.40;15.18;;;;;;;-5.43;85.24;102344.66;5207547;28;20078;-77
2022/12/18 08:39:12;;;;;;;38.08;15.50;;;;;;;-5.66;86.82;102345.03;5213725;28;20021;-76
2022/12/18 08:44:36;;;;;;;40.92;15.88;;;;;;;-5.84;89.14;102340.56;5208513;28;20024;-77
2022/12/18 08:44:39;;;;;;;38.55;17.05;;;;;;;-5.83;90.65;102345.75;5208552;28;20156;-75
2022/12/18 08:47:09;;;;;;;39.28;16.83;;;;;;;-5.83;92.35;102335.59;5206757;28;20530;-74
2022/12/18 08:49:40;;;;;;;34.60;15.38;;;;;;;-5.91;92.77;102336.78;5206359;28;20120;-76
2022/12/18 08:52:10;;;;;;;40.47;17.17;;;;;;;-5.91;93.45;102329.16;5204398;28;20522;-77
2022/12/18 08:54:41;;;;;;;37.67;16.55;;;;;;;-5.85;93.45;102327.00;5206792;28;20116;-77
2022/12/18 08:57:11;;;;;;;38.20;16.45;;;;;;;-5.80;94.20;102329.78;5211000;28;20025;-77
2022/12/18 08:59:41;;;;;;;36.97;16.42;;;;;;;-5.83;95.67;102334.69;5209674;28;20025;-78
2022/12/18 09:02:12;;;;;;;38.70;16.67;;;;;;;-5.76;95.96;102332.56;5196786;28;20096;-77
2022/12/18 09:04:42;;;;;;;40.10;18.00;;;;;;;-5.93;95.50;102323.09;5206708;28;20029;-77
2022/12/18 09:07:13;;;;;;;40.90;16.95;;;;;;;-5.91;96.45;102320.66;5193115;28;20026;-75
2022/12/18 09:09:43;;;;;;;40.22;16.60;;;;;;;-5.87;96.92;102332.78;5196933;28;20550;-77
2022/12/18 09:12:13;;;;;;;38.10;15.40;;;;;;;-5.75;97.50;102320.72;5184592;28;20053;-77
2022/12/18 09:14:44;;;;;;;40.15;16.17;;;;;;;-5.72;97.38;102313.25;5206229;28;20033;-77
2022/12/18 09:17:14;;;;;;;35.03;16.60;;;;;;;-5.67;98.77;102306.75;5205159;28;20060;-77
2022/12/18 09:19:44;;;;;;;35.63;15.48;;;;;;;-5.56;97.57;102300.59;5194801;28;20044;-76
2022/12/18 09:22:15;;;;;;;33.65;15.50;;;;;;;-5.58;98.72;102308.13;5204183;28;20025;-76
2022/12/18 09:24:45;;;;;;;39.67;15.63;;;;;;;-5.41;98.64;102304.84;5209815;28;20029;-75
2022/12/18 09:27:15;;;;;;;35.97;15.85;;;;;;;-5.35;98.52;102300.97;5205680;28;20532;-73
2022/12/18 09:29:46;;;;;;;36.08;15.52;;;;;;;-5.32;98.97;102295.19;5203053;28;20037;-75
2022/12/18 09:32:16;;;;;;;37.90;16.33;;;;;;;-5.28;99.46;102279.28;5198991;28;20100;-74
2022/12/18 09:34:46;;;;;;;35.25;15.25;;;;;;;-5.07;99.87;102275.34;5211140;28;20108;-75
2022/12/18 09:37:17;;;;;;;33.20;15.50;;;;;;;-5.02;99.68;102282.44;5202372;28;20482;-76
2022/12/18 09:39:47;;;;;;;37.30;16.30;;;;;;;-4.81;99.86;102277.59;5206835;28;20034;-76
2022/12/18 09:42:21;;;;;;;37.10;16.60;;;;;;;-4.63;99.25;102278.56;5208714;28;20061;-76
2022/12/18 09:44:53;;;;;;;33.88;15.35;;;;;;;-4.77;98.32;102271.88;5208901;28;20044;-75
2022/12/18 09:47:34;;;;;;;40.65;16.35;;;;;;;-4.57;97.96;102266.13;5207057;28;20107;-76
2022/12/18 09:50:16;;;;;;;38.80;16.13;;;;;;;-4.42;98.62;102266.91;5206302;28;20482;-76
2022/12/18 09:52:53;;;;;;;37.40;15.93;;;;;;;-4.39;99.01;102262.84;5208911;28;20040;-75
2022/12/18 09:55:54;;;;;;;33.47;15.07;;;;;;;-4.34;98.26;102260.50;5211202;28;20036;-76
2022/12/18 09:58:28;;;;;;;37.42;15.70;;;;;;;-4.12;99.36;102253.16;5204763;28;20561;-76
2022/12/18 10:00:58;;;;;;;34.78;15.15;;;;;;;-4.31;98.56;102246.25;5213844;28;20017;-77
2022/12/18 10:03:29;;;;;;;34.58;15.20;;;;;;;-4.39;98.85;102257.75;5208222;28;20033;-75
2022/12/18 10:06:21;;;;;;;34.25;14.80;;;;;;;-4.30;98.42;102265.00;5206330;28;20037;-75
2022/12/18 10:08:59;;;;;;;35.33;15.85;;;;;;;-4.12;99.14;102265.91;5210058;28;20113;-76
2022/12/18 10:12:08;;;;;;;38.42;16.10;;;;;;;-3.96;98.81;102265.88;5212780;28;20032;-75
2022/12/18 10:15:00;;;;;;;32.60;15.25;;;;;;;-3.99;98.57;102265.72;5191262;28;20045;-75
2022/12/18 10:17:55;;;;;;;32.92;14.80;;;;;;;-3.81;98.27;102266.63;5190992;28;20029;-76
2022/12/18 10:20:30;;;;;;;35.88;13.93;;;;;;;-3.67;99.27;102262.22;5199324;28;20029;-76
2022/12/18 10:23:28;;;;;;;32.17;14.50;;;;;;;-3.52;99.15;102268.06;5204681;28;20335;-75
2022/12/18 10:26:03;;;;;;;33.17;14.55;;;;;;;-3.35;99.13;102277.41;5208025;28;20040;-76
2022/12/18 10:28:37;;;;;;;32.15;14.05;;;;;;;-3.15;99.94;102276.69;5211369;28;20038;-76
2022/12/18 10:31:16;;;;;;;32.83;15.25;;;;;;;-3.26;97.25;102285.53;5215012;28;20037;-76
2022/12/18 10:33:47;;;;;;;31.90;14.20;;;;;;;-3.37;96.88;102296.03;5205048;28;20035;-75
2022/12/18 10:36:17;;;;;;;33.65;14.20;;;;;;;-3.40;97.12;102299.31;5200334;28;20488;-75
2022/12/18 10:38:47;;;;;;;33.50;14.93;;;;;;;-3.29;98.53;102290.50;5202335;28;20029;-76
2022/12/18 10:41:23;;;;;;;34.58;15.32;;;;;;;-3.26;98.50;102280.41;5204022;28;20032;-76
2022/12/18 10:44:22;;;;;;;39.90;15.77;;;;;;;-3.31;98.83;102278.44;5202198;28;20025;-76
2022/12/18 10:47:04;;;;;;;36.92;15.57;;;;;;;-3.44;98.42;102279.53;5207536;28;20036;-76
2022/12/18 10:49:35;;;;;;;31.90;14.43;;;;;;;-3.34;98.80;102279.16;5196146;28;20425;-76
2022/12/18 10:52:19;;;;;;;35.03;16.02;;;;;;;-3.31;98.76;102279.31;5204826;28;20388;-75
2022/12/18 10:54:58;;;;;;;40.47;16.75;;;;;;;-3.18;99.79;102261.19;5210376;28;20029;-75
2022/12/18 10:57:36;;;;;;;34.95;15.15;;;;;;;-3.09;100.00;102253.94;5205647;28;20036;-76
2022/12/18 11:00:28;;;;;;;37.65;15.57;;;;;;;-3.02;100.00;102258.50;5208160;28;20498;-76
2022/12/18 11:02:59;;;;;;;34.63;14.13;;;;;;;-2.98;100.00;102241.66;5198243;28;20084;-76
2022/12/18 11:05:33;;;;;;;37.30;15.63;;;;;;;-2.83;100.00;102240.63;5202840;28;20759;-77
2022/12/18 11:08:04;;;;;;;29.63;14.25;;;;;;;-2.68;100.00;102235.34;5198526;28;20040;-76
2022/12/18 11:10:37;;;;;;;31.60;14.18;;;;;;;-2.51;100.00;102229.25;5207282;28;20468;-77
2022/12/18 11:13:24;;;;;;;32.55;14.15;;;;;;;-2.33;100.00;102225.78;5207716;28;20040;-76
2022/12/18 11:15:55;;;;;;;28.60;13.82;;;;;;;-2.34;100.00;102229.16;5205957;28;20057;-77
2022/12/18 11:18:25;;;;;;;30.13;14.25;;;;;;;-2.15;100.00;102225.69;5200756;28;20124;-76
2022/12/18 11:21:07;;;;;;;30.08;13.00;;;;;;;-2.19;100.00;102224.69;5201726;28;20033;-74
2022/12/18 11:23:47;;;;;;;27.77;12.85;;;;;;;-2.01;100.00;102217.75;5203641;28;20174;-76
2022/12/18 11:26:17;;;;;;;26.17;12.13;;;;;;;-1.92;100.00;102204.44;5197542;28;20029;-75
2022/12/18 11:29:07;;;;;;;26.23;11.88;;;;;;;-1.83;100.00;102199.72;5210629;28;20198;-76
2022/12/18 11:31:37;;;;;;;27.35;10.60;;;;;;;-1.85;100.00;102193.66;5206921;28;20120;-76
2022/12/18 11:34:27;;;;;;;25.27;10.25;;;;;;;-1.82;100.00;102192.97;5206063;28;20124;-76
2022/12/18 11:37:00;;;;;;;24.17;11.43;;;;;;;-1.71;100.00;102204.47;5195008;28;20112;-76
2022/12/18 11:39:39;;;;;;;24.77;10.60;;;;;;;-1.77;100.00;102195.72;5194807;28;20052;-76
2022/12/18 11:42:43;;;;;;;22.83;10.45;;;;;;;-1.75;100.00;102184.69;5200108;28;20032;-76